• Join FlightAware (Why Join?)
  • Login
  • US Flag 
06:24PM EDT


 

Airport Tracker/Info


-or-


 

Live Flight TrackerFlight Track Log ✈ MSR647 ✈ 01-May-2012 ✈ HECA / CAI - OERK / RUH

Flight Track Log - Related Links

Times and Time Zones

All times are in EDT time to prevent confusion due to time zone crossing. See the MSR647 flight status page for this flight to view local times or setup timezone preferences in your user account.

Time Position Orientation Groundspeed Altitude Reporting Facility
EDT Latitude Longitude Course Direction KTS MPH feet Rate Location/Type
11:36AM 29.8255 32.4944 108° East  Level Estimated
11:37AM 29.7890 32.6260 108° East  Level Estimated
11:38AM 29.7523 32.7574 108° East  Level Estimated
11:39AM 29.7155 32.8888 108° East  Level Estimated
11:40AM 29.6786 33.0200 108° East  Level Estimated
11:41AM 29.6415 33.1512 108° East  Level Estimated
11:42AM 29.6043 33.2822 108° East  Level Estimated
11:43AM 29.5670 33.4132 108° East  Level Estimated
11:44AM 29.5296 33.5440 108° East  Level Estimated
11:45AM 29.4920 33.6748 108° East  Level Estimated
11:46AM 29.4543 33.8055 108° East  Level Estimated
11:47AM 29.4165 33.9361 108° East  Level Estimated
11:48AM 29.3785 34.0665 108° East  Level Estimated
11:49AM 29.3405 34.1969 109° East  Level Estimated
11:50AM 29.3023 34.3272 109° East  Level Estimated
11:51AM 29.2639 34.4574 109° East  Level Estimated
11:52AM 29.2255 34.5875 109° East  Level Estimated
11:53AM 29.1869 34.7175 109° East  Level Estimated
11:54AM 29.1482 34.8474 109° East  Level Estimated
11:55AM 29.1094 34.9771 109° East  Level Estimated
11:56AM 29.0704 35.1068 109° East  Level Estimated
11:57AM 29.0313 35.2364 109° East  Level Estimated
11:58AM 28.9921 35.3659 109° East  Level Estimated
11:59AM 28.9528 35.4953 109° East  Level Estimated
12:00PM 28.9133 35.6246 109° East  Level Estimated
12:01PM 28.8737 35.7538 109° East  Level Estimated
12:02PM 28.8340 35.8829 109° East  Level Estimated
12:03PM 28.7942 36.0119 109° East  Level Estimated
12:04PM 28.7543 36.1409 110° East  Level Estimated
12:05PM 28.7142 36.2697 110° East  Level Estimated
12:06PM 28.6740 36.3984 110° East  Level Estimated
12:07PM 28.6337 36.5270 110° East  Level Estimated
12:08PM 28.5933 36.6555 110° East  Level Estimated
12:09PM 28.5527 36.7839 110° East  Level Estimated
12:10PM 28.5120 36.9122 110° East  Level Estimated
12:11PM 28.4712 37.0404 110° East  Level Estimated
12:12PM 28.4303 37.1685 110° East  Level Estimated
12:13PM 28.3893 37.2966 110° East  Level Estimated
12:14PM 28.3481 37.4245 110° East  Level Estimated
12:15PM 28.3069 37.5523 110° East  Level Estimated
12:16PM 28.2655 37.6800 110° East  Level Estimated
12:17PM 28.2239 37.8076 110° East  Level Estimated
12:18PM 28.1823 37.9352 110° East  Level Estimated
12:19PM 28.1406 38.0626 110° East  Level Estimated
12:20PM 28.0987 38.1899 110° East  Level Estimated
12:21PM 28.0567 38.3171 111° Southeast  Level Estimated
12:22PM 28.0146 38.4442 111° Southeast  Level Estimated
12:23PM 27.9724 38.5713 111° Southeast  Level Estimated
12:24PM 27.9301 38.6982 111° Southeast  Level Estimated
12:25PM 27.8876 38.8250 111° Southeast  Level Estimated
12:26PM 27.8451 38.9517 111° Southeast  Level Estimated
12:27PM 27.8024 39.0784 111° Southeast  Level Estimated
12:28PM 27.7596 39.2049 111° Southeast  Level Estimated
12:29PM 27.7167 39.3313 111° Southeast  Level Estimated
12:30PM 27.6736 39.4576 111° Southeast  Level Estimated
12:31PM 27.6305 39.5838 111° Southeast  Level Estimated
12:32PM 27.5872 39.7100 111° Southeast  Level Estimated
12:33PM 27.5439 39.8360 111° Southeast  Level Estimated
12:34PM 27.5004 39.9619 111° Southeast  Level Estimated
12:35PM 27.4568 40.0878 111° Southeast  Level Estimated
12:36PM 27.4131 40.2135 111° Southeast  Level Estimated
12:37PM 27.3692 40.3391 111° Southeast  Level Estimated
12:38PM 27.3253 40.4646 112° Southeast  Level Estimated
12:39PM 27.2813 40.5901 112° Southeast  Level Estimated
12:40PM 27.2371 40.7154 112° Southeast  Level Estimated
12:41PM 27.1928 40.8406 112° Southeast  Level Estimated
12:42PM 27.1485 40.9658 112° Southeast  Level Estimated
12:43PM 27.1040 41.0908 112° Southeast  Level Estimated
12:44PM 27.0594 41.2157 112° Southeast  Level Estimated
12:45PM 27.0147 41.3406 112° Southeast  Level Estimated
12:46PM 26.9698 41.4653 112° Southeast  Level Estimated
12:47PM 26.9249 41.5899 112° Southeast  Level Estimated
12:48PM 26.8799 41.7145 112° Southeast  Level Estimated
12:49PM 26.8347 41.8389 112° Southeast  Level Estimated
12:50PM 26.7894 41.9632 112° Southeast  Level Estimated
12:51PM 26.7441 42.0875 112° Southeast  Level Estimated
12:52PM 26.6986 42.2116 112° Southeast  Level Estimated
12:53PM 26.6530 42.3357 112° Southeast  Level Estimated
12:54PM 26.6073 42.4596 112° Southeast  Level Estimated
12:55PM 26.5615 42.5834 112° Southeast  Level Estimated
12:56PM 26.5156 42.7072 113° Southeast  Level Estimated
12:57PM 26.4696 42.8308 113° Southeast  Level Estimated
12:58PM 26.4235 42.9543 113° Southeast  Level Estimated
12:59PM 26.3773 43.0778 113° Southeast  Level Estimated
01:00PM 26.3309 43.2011 113° Southeast  Level Estimated
01:01PM 26.2845 43.3244 113° Southeast  Level Estimated
01:02PM 26.2379 43.4475 113° Southeast  Level Estimated
01:03PM 26.1913 43.5706 113° Southeast  Level Estimated
01:04PM 26.1446 43.6935 113° Southeast  Level Estimated
01:05PM 26.0977 43.8164 113° Southeast  Level Estimated
01:06PM 26.0507 43.9391 113° Southeast  Level Estimated
01:07PM 26.0037 44.0618 113° Southeast  Level Estimated
01:08PM 25.9565 44.1843 113° Southeast  Level Estimated
01:09PM 25.9092 44.3068 113° Southeast  Level Estimated
01:10PM 25.8619 44.4292 113° Southeast  Level Estimated
01:11PM 25.8144 44.5514 113° Southeast  Level Estimated
01:12PM 25.7668 44.6736 113° Southeast  Level Estimated
01:13PM 25.7191 44.7957 113° Southeast  Level Estimated
01:14PM 25.6713 44.9176 114° Southeast  Level Estimated
01:15PM 25.6235 45.0395 114° Southeast  Level Estimated
01:16PM 25.5755 45.1613 114° Southeast  Level Estimated
01:17PM 25.5274 45.2829 114° Southeast  Level Estimated
01:18PM 25.4792 45.4045 114° Southeast  Level Estimated
01:19PM 25.4309 45.5260 114° Southeast  Level Estimated
01:20PM 25.3825 45.6474 114° Southeast  Level Estimated
01:21PM 25.3341 45.7687 114° Southeast  Level Estimated
01:22PM 25.2855 45.8898 114° Southeast  Level Estimated
01:23PM 25.2368 46.0109 114° Southeast  Level Estimated
01:24PM 25.1880 46.1319 114° Southeast  Level Estimated
01:25PM 25.1391 46.2528 114° Southeast  Level Estimated
01:26PM 25.0902 46.3736 114° Southeast  Level Estimated
01:27PM 25.0411 46.4943 114° Southeast  Level Estimated
01:28PM 24.9919 46.6149 114° Southeast  Level Estimated
01:29PM 24.9426 46.7354 294° West  Level Estimated
01:30PM 24.9919 46.6149 114° Southeast  Level Estimated
01:31PM 24.9426 46.7354 294° West  Level Estimated
01:32PM 24.9919 46.6149 114° Southeast  Level Estimated
01:33PM 24.9426 46.7354 294° West  Level Estimated
01:34PM 24.9919 46.6149 114° Southeast  Level Estimated
01:35PM 24.9426 46.7354 294° West  Level Estimated
01:36PM 24.9919 46.6149 114° Southeast  Level Estimated
01:37PM 24.9426 46.7354 294° West  Level Estimated
01:38PM 24.9919 46.6149 114° Southeast  Level Estimated
01:39PM 24.9426 46.7354 294° West  Level Estimated
01:40PM 24.9919 46.6149 114° Southeast  Level Estimated
01:41PM 24.9426 46.7354 294° West  Level Estimated
01:42PM 24.9919 46.6149 114° Southeast  Level Estimated
01:43PM 24.9426 46.7354 294° West  Level Estimated
01:44PM 24.9919 46.6149 294° West  Level Estimated